Harumaru No,1 — JD2276 — position and weather

sailwx.info

Track history (hours):
 
Tides and Currents Weather Stations Pressure Air Temp Water Temp Dewpoint Dewpoint Depression Visibility Wind Speed Wind Dir Waves Ship Positions

Harumaru No,1

Last reported at 2018-Jul-20 04:31 UTC. Time now 2018-Jul-20 06:28 UTC.
Position N 34°34' E 134°16'.

Length 145 m; draft 6.5 m.

Type: Other ship. MMSI: 431501868.

Date/timePositionNaut miles runAvg speedWind from/ knotsBaromVisibWave heightAir tempDewpointWater temp
2018-Jul-20 04:31N 34°34' E 134°16'322.0
2018-Jul-20 04:24N 34°35' E 134°19'921.9
2018-Jul-20 04:00N 34°34' E 134°29'1121.6
2018-Jul-20 03:30N 34°33' E 134°42'1121.6
2018-Jul-20 03:00N 34°36' E 134°55'1019.7
2018-Jul-20 02:30N 34°36' E 135°07'1019.9
2018-Jul-20 02:00N 34°34' E 135°18'5 9.9
2018-Jul-20 01:28N 34°31' E 135°24'0 0.0
2018-Jul-20 00:52N 34°31' E 135°24'0 0.0
2018-Jul-20 00:28N 34°31' E 135°24'0 0.0
2018-Jul-19 23:58N 34°31' E 135°24'0 0.0
2018-Jul-19 23:30N 34°31' E 135°24'0 0.0
2018-Jul-19 23:00N 34°31' E 135°24'2 4.6
2018-Jul-19 22:31N 34°32' E 135°21'917.4
2018-Jul-19 22:01N 34°27' E 135°12'918.5
2018-Jul-19 21:31N 34°22' E 135°04'917.3
2018-Jul-19 21:01N 34°14' E 134°59'1019.6
2018-Jul-19 20:31N 34°04' E 135°00'1019.1
2018-Jul-19 20:01N 33°54' E 135°01'21316.7
2018-Jul-19 07:16N 34°51' E 139°10'618.7
2018-Jul-19 06:57N 34°55' E 139°14'818.4
2018-Jul-19 06:30N 34°59' E 139°22'918.2
2018-Jul-19 06:00N 35°03' E 139°32'919.0
2018-Jul-19 05:30N 35°07' E 139°43'816.0
2018-Jul-19 05:00N 35°15' E 139°46'713.2
2018-Jul-19 04:31N 35°21' E 139°42'1019.3
2018-Jul-19 04:01N 35°29' E 139°49'1019.8
2018-Jul-19 03:30N 35°33' E 139°60'610.9
2018-Jul-19 02:59N 35°35' E 140°06'0 0.1
2018-Jul-19 01:12N 35°36' E 140°07'0 0.0
2018-Jul-19 01:00N 35°36' E 140°07'0 0.0
2018-Jul-19 00:21N 35°36' E 140°07'0 0.0
2018-Jul-18 23:57N 35°36' E 140°07'0 0.0
2018-Jul-18 23:27N 35°36' E 140°07'0 0.0
2018-Jul-18 20:16N 35°36' E 140°07'1 3.4
2018-Jul-18 19:58N 35°35' E 140°05'613.8
2018-Jul-18 19:30N 35°33' E 139°58'919.0
2018-Jul-18 19:00N 35°27' E 139°49'714.2
2018-Jul-18 18:30N 35°21' E 139°45'612.1
2018-Jul-18 18:00N 35°15' E 139°47'815.9
2018-Jul-18 17:30N 35°07' E 139°45'1018.7
2018-Jul-18 16:59N 34°60' E 139°37'1220.7
2018-Jul-18 16:25N 34°52' E 139°26'22317.2
2018-Jul-18 03:30N 33°45' E 135°09'919.1
2018-Jul-18 03:00N 33°52' E 135°02'918.4
2018-Jul-18 02:30N 34°01' E 134°59'919.0
2018-Jul-18 02:00N 34°10' E 134°58'918.7
2018-Jul-18 01:30N 34°19' E 135°00'1019.2
2018-Jul-18 01:00N 34°25' E 135°09'918.7
2018-Jul-18 00:30N 34°30' E 135°19'5 8.7
2018-Jul-17 23:59N 34°31' E 135°24'0 0.0
2018-Jul-17 23:29N 34°31' E 135°24'0 0.0
2018-Jul-17 22:59N 34°31' E 135°24'0 0.0
2018-Jul-17 22:29N 34°31' E 135°24'0 0.0
2018-Jul-17 21:59N 34°31' E 135°24'0 0.0
2018-Jul-17 21:29N 34°31' E 135°24'0 0.0
2018-Jul-17 21:00N 34°31' E 135°24'2 3.2
2018-Jul-17 20:30N 34°33' E 135°23'816.0
2018-Jul-17 20:00N 34°35' E 135°14'919.0
2018-Jul-17 19:31N 34°36' E 135°02'1020.4
2018-Jul-17 19:00N 34°33' E 134°50'1021.0
2018-Jul-17 18:31N 34°29' E 134°39'1121.5
2018-Jul-17 18:00N 34°25' E 134°27'1121.0
2018-Jul-17 17:30N 34°24' E 134°14'18 1.9
2018-Jul-17 08:14N 34°25' E 133°53'24 5.4
2018-Jul-17 03:48N 34°35' E 134°19'619.5
2018-Jul-17 03:30N 34°34' E 134°25'1019.5
2018-Jul-17 03:00N 34°33' E 134°37'1019.6
2018-Jul-17 02:30N 34°34' E 134°49'1020.4
2018-Jul-17 02:00N 34°37' E 135°01'919.0
2018-Jul-17 01:30N 34°35' E 135°12'917.5
2018-Jul-17 01:00N 34°33' E 135°22'2 4.0
2018-Jul-17 00:29N 34°31' E 135°24'0 0.0
2018-Jul-16 23:29N 34°31' E 135°24'0 0.0
2018-Jul-16 22:59N 34°31' E 135°24'0 0.0
2018-Jul-16 22:23N 34°31' E 135°24'0 0.0
2018-Jul-16 21:59N 34°31' E 135°24'0 0.0
2018-Jul-16 21:29N 34°31' E 135°24'0 0.0
2018-Jul-16 20:59N 34°31' E 135°24'0 0.1
2018-Jul-16 20:23N 34°31' E 135°24'0 0.0
2018-Jul-16 19:59N 34°31' E 135°24'0 0.1
2018-Jul-16 19:29N 34°31' E 135°24'0 0.0
2018-Jul-16 18:59N 34°31' E 135°24'0 0.0
2018-Jul-16 18:29N 34°31' E 135°24'0 0.0
2018-Jul-16 17:53N 34°31' E 135°24'0 0.0
2018-Jul-16 17:17N 34°31' E 135°24'0 0.0
2018-Jul-16 16:59N 34°31' E 135°24'0 0.0
2018-Jul-16 16:17N 34°31' E 135°24'0 0.0
2018-Jul-16 15:59N 34°31' E 135°24'0 0.0
2018-Jul-16 15:23N 34°31' E 135°24'0 0.0
2018-Jul-16 14:53N 34°31' E 135°24'0 0.0
2018-Jul-16 14:29N 34°31' E 135°24'0 0.0
2018-Jul-16 13:53N 34°31' E 135°24'0 0.0
2018-Jul-16 13:23N 34°31' E 135°24'0 0.1
2018-Jul-16 12:59N 34°31' E 135°24'0 0.1
2018-Jul-16 12:29N 34°31' E 135°24'0 0.0
2018-Jul-16 11:59N 34°31' E 135°24'0 0.0
2018-Jul-16 11:29N 34°31' E 135°24'0 0.0
2018-Jul-16 10:59N 34°31' E 135°24'0 0.0
2018-Jul-16 10:29N 34°31' E 135°24'0 0.0
2018-Jul-16 09:59N 34°31' E 135°24'0 0.0
2018-Jul-16 09:23N 34°31' E 135°24'0 0.0
2018-Jul-16 08:47N 34°31' E 135°24'0 0.2
2018-Jul-16 08:29N 34°31' E 135°24'0 0.1
2018-Jul-16 07:59N 34°31' E 135°24'0 0.0
2018-Jul-16 07:29N 34°31' E 135°24'0 0.1
2018-Jul-16 06:59N 34°31' E 135°24'0 0.0
2018-Jul-16 06:23N 34°31' E 135°24'0 0.1
2018-Jul-16 05:59N 34°31' E 135°24'0 0.0
2018-Jul-16 05:23N 34°31' E 135°24'0 0.0
2018-Jul-16 04:59N 34°31' E 135°24'0 0.0
2018-Jul-16 04:29N 34°31' E 135°24'0 0.0
2018-Jul-16 03:59N 34°31' E 135°24'0 0.1
2018-Jul-16 03:29N 34°31' E 135°24'0 0.1
2018-Jul-16 02:53N 34°31' E 135°24'0 0.0
2018-Jul-16 02:29N 34°31' E 135°24'0 0.0
2018-Jul-16 01:59N 34°31' E 135°24'0 0.1
2018-Jul-16 01:23N 34°31' E 135°24'0 0.1
2018-Jul-16 00:59N 34°31' E 135°24'0 0.1
2018-Jul-16 00:29N 34°31' E 135°24'0 0.1
2018-Jul-15 23:59N 34°31' E 135°24'0 0.0
2018-Jul-15 23:29N 34°31' E 135°24'0 0.0
2018-Jul-15 22:59N 34°31' E 135°24'0 0.0
2018-Jul-15 22:23N 34°31' E 135°24'0 0.0
2018-Jul-15 21:59N 34°31' E 135°24'0 0.0
2018-Jul-15 21:29N 34°31' E 135°24'0 0.0
2018-Jul-15 20:59N 34°31' E 135°24'0 0.0
2018-Jul-15 20:29N 34°31' E 135°24'0 0.0
2018-Jul-15 19:59N 34°31' E 135°24'0 0.0
2018-Jul-15 19:29N 34°31' E 135°24'0 0.0
2018-Jul-15 18:59N 34°31' E 135°24'0 0.0
2018-Jul-15 18:29N 34°31' E 135°24'0 0.0
2018-Jul-15 17:56N 34°31' E 135°24'0 0.0
2018-Jul-15 17:29N 34°31' E 135°24'0 0.1
2018-Jul-15 16:47N 34°31' E 135°24'0 0.1
2018-Jul-15 16:05N 34°31' E 135°24'0 0.0
2018-Jul-15 15:59N 34°31' E 135°24'0 0.0
2018-Jul-15 15:29N 34°31' E 135°24'0 0.0
2018-Jul-15 14:59N 34°31' E 135°24'0 0.1
2018-Jul-15 14:29N 34°31' E 135°24'0 0.1
2018-Jul-15 13:56N 34°31' E 135°24'0 0.0
2018-Jul-15 13:29N 34°31' E 135°24'0 0.1
2018-Jul-15 12:59N 34°31' E 135°24'0 0.1
2018-Jul-15 12:23N 34°31' E 135°24'0 0.0
2018-Jul-15 11:47N 34°31' E 135°24'0 0.0
2018-Jul-15 11:29N 34°31' E 135°24'0 0.0
2018-Jul-15 10:59N 34°31' E 135°24'0 0.0
2018-Jul-15 10:29N 34°31' E 135°24'0 0.0
2018-Jul-15 09:50N 34°31' E 135°24'0 0.0
2018-Jul-15 09:29N 34°31' E 135°24'0 0.0
2018-Jul-15 08:59N 34°31' E 135°24'0 0.1
2018-Jul-15 08:29N 34°31' E 135°24'0 0.0
2018-Jul-15 07:59N 34°31' E 135°24'0 0.1
2018-Jul-15 07:23N 34°31' E 135°24'0 0.1
2018-Jul-15 06:59N 34°31' E 135°24'0 0.1
2018-Jul-15 06:29N 34°31' E 135°24'0 0.0
2018-Jul-15 05:59N 34°31' E 135°24'0 0.1
2018-Jul-15 05:29N 34°31' E 135°24'0 0.1
2018-Jul-15 04:59N 34°31' E 135°24'0 0.0
2018-Jul-15 04:29N 34°31' E 135°24'0 0.0
2018-Jul-15 03:59N 34°31' E 135°24'0 0.0
2018-Jul-15 03:29N 34°31' E 135°24'0 0.0
2018-Jul-15 02:59N 34°31' E 135°24'0 0.1
2018-Jul-15 02:29N 34°31' E 135°24'0 0.1
2018-Jul-15 01:59N 34°31' E 135°24'0 0.0
2018-Jul-15 01:29N 34°31' E 135°24'0 0.0
2018-Jul-15 00:59N 34°31' E 135°24'0 0.0
2018-Jul-15 00:29N 34°31' E 135°24'0 0.1
2018-Jul-14 23:59N 34°31' E 135°24'0 0.1
2018-Jul-14 23:29N 34°31' E 135°24'0 0.1
2018-Jul-14 23:00N 34°31' E 135°24'3 5.1
2018-Jul-14 22:30N 34°32' E 135°21'917.9
2018-Jul-14 22:00N 34°27' E 135°12'1019.6
2018-Jul-14 21:30N 34°21' E 135°03'917.1
2018-Jul-14 21:00N 34°13' E 134°60'1019.1
2018-Jul-14 20:30N 34°03' E 135°01'918.8
2018-Jul-14 20:00N 33°54' E 135°01'1019.5
2018-Jul-14 19:29N 33°46' E 135°09'16317.5
2018-Jul-14 10:09N 34°25' E 138°21'1818.9
2018-Jul-14 09:11N 34°29' E 138°42'1517.9
2018-Jul-14 08:19N 34°36' E 138°59'820.1
2018-Jul-14 07:56N 34°42' E 139°04'819.2
2018-Jul-14 07:30N 34°49' E 139°09'1018.8
2018-Jul-14 07:00N 34°57' E 139°16'817.2
2018-Jul-14 06:30N 35°01' E 139°25'918.0
2018-Jul-14 06:00N 35°04' E 139°35'1019.2
2018-Jul-14 05:30N 35°10' E 139°45'713.9
2018-Jul-14 05:00N 35°17' E 139°45'714.2
2018-Jul-14 04:30N 35°23' E 139°42'1020.1
2018-Jul-14 04:00N 35°30' E 139°52'918.4
2018-Jul-14 03:30N 35°34' E 140°02'4 6.0
2018-Jul-14 02:49N 35°36' E 140°07'0 0.0
2018-Jul-14 02:16N 35°36' E 140°07'0 0.0
2018-Jul-14 01:58N 35°36' E 140°07'0 0.0
2018-Jul-14 01:19N 35°36' E 140°07'0 0.0
2018-Jul-14 00:58N 35°36' E 140°07'0 0.0
2018-Jul-14 00:28N 35°36' E 140°07'0 0.0
2018-Jul-13 23:43N 35°36' E 140°07'0 0.0
2018-Jul-13 23:28N 35°36' E 140°07'0 0.0
2018-Jul-13 22:37N 35°36' E 140°07'0 0.0
2018-Jul-13 22:28N 35°36' E 140°07'0 0.0
2018-Jul-13 21:52N 35°36' E 140°07'0 0.0
2018-Jul-13 21:28N 35°36' E 140°07'0 0.0
2018-Jul-13 20:58N 35°36' E 140°07'0 0.0
2018-Jul-13 20:28N 35°36' E 140°07'1 2.4
2018-Jul-13 20:00N 35°35' E 140°05'714.2
2018-Jul-13 19:30N 35°32' E 139°57'1019.1
2018-Jul-13 19:00N 35°26' E 139°49'713.6
2018-Jul-13 18:30N 35°20' E 139°44'612.1
2018-Jul-13 18:00N 35°14' E 139°47'816.0
2018-Jul-13 17:31N 35°07' E 139°44'1019.2
2018-Jul-13 17:01N 34°59' E 139°38'918.6
2018-Jul-13 16:31N 34°54' E 139°28'1121.4
2018-Jul-13 15:58N 34°47' E 139°17'2920.1
2018-Jul-13 14:31N 34°30' E 138°48'020.9
2018-Jul-13 14:30N 34°30' E 138°48'1918.8
2018-Jul-13 13:30N 34°27' E 138°25'16716.7
2018-Jul-13 03:27N 33°43' E 135°10'920.5
2018-Jul-13 03:00N 33°49' E 135°03'1019.8
2018-Jul-13 02:30N 33°59' E 134°59'1020.1
2018-Jul-13 02:00N 34°09' E 134°59'1020.4
2018-Jul-13 01:30N 34°19' E 134°60'1019.3
2018-Jul-13 01:01N 34°26' E 135°08'1019.2
2018-Jul-13 00:30N 34°30' E 135°18'5 9.8
2018-Jul-13 00:00N 34°31' E 135°24'0 0.0
2018-Jul-12 23:30N 34°31' E 135°24'0 0.0
2018-Jul-12 23:00N 34°31' E 135°24'0 0.0
2018-Jul-12 22:30N 34°31' E 135°24'0 0.0
2018-Jul-12 22:00N 34°31' E 135°24'0 0.0
2018-Jul-12 21:30N 34°31' E 135°24'0 0.0
2018-Jul-12 21:00N 34°31' E 135°24'2 3.1
2018-Jul-12 20:30N 34°33' E 135°23'714.6
2018-Jul-12 20:00N 34°35' E 135°15'917.8
2018-Jul-12 19:30N 34°35' E 135°04'918.6
2018-Jul-12 19:00N 34°34' E 134°53'1019.6
2018-Jul-12 18:30N 34°30' E 134°42'1019.6
2018-Jul-12 18:00N 34°26' E 134°31'918.8
2018-Jul-12 17:30N 34°23' E 134°20'816.5
2018-Jul-12 17:00N 34°25' E 134°10'12 1.0
2018-Jul-12 04:52N 34°35' E 134°18'720.3
2018-Jul-12 04:30N 34°34' E 134°27'1020.7
2018-Jul-12 04:00N 34°33' E 134°39'1019.8
2018-Jul-12 03:30N 34°35' E 134°51'917.4
2018-Jul-12 03:00N 34°37' E 135°02'918.9
2018-Jul-12 02:30N 34°35' E 135°12'917.4
2018-Jul-12 02:00N 34°33' E 135°23'1 2.9
2018-Jul-12 01:30N 34°31' E 135°24'0 0.0
2018-Jul-12 01:00N 34°31' E 135°24'0 0.0
2018-Jul-12 00:24N 34°31' E 135°24'0 0.0
2018-Jul-12 00:01N 34°31' E 135°24'0 0.1
2018-Jul-11 23:30N 34°31' E 135°24'0 0.8
2018-Jul-11 23:00N 34°32' E 135°24'611.3
2018-Jul-11 22:30N 34°30' E 135°18'1019.0
2018-Jul-11 22:00N 34°25' E 135°08'1019.6
2018-Jul-11 21:30N 34°18' E 134°60'1020.0
2018-Jul-11 21:00N 34°08' E 134°60'1019.6
2018-Jul-11 20:30N 33°58' E 135°01'1018.3
2018-Jul-11 19:59N 33°49' E 135°05'20717.4
2018-Jul-11 08:09N 34°44' E 139°06'318.1
2018-Jul-11 07:58N 34°47' E 139°08'818.0
2018-Jul-11 07:30N 34°54' E 139°14'816.5
2018-Jul-11 07:00N 34°59' E 139°22'816.5
2018-Jul-11 06:30N 35°02' E 139°31'919.1
2018-Jul-11 06:00N 35°06' E 139°42'816.7
2018-Jul-11 05:30N 35°14' E 139°46'612.7
2018-Jul-11 05:00N 35°19' E 139°43'815.7
2018-Jul-11 04:30N 35°27' E 139°46'1019.4
2018-Jul-11 04:00N 35°32' E 139°57'711.2
2018-Jul-11 03:23N 35°35' E 140°04'2 3.3
2018-Jul-11 02:42N 35°36' E 140°07'0 0.0
2018-Jul-11 02:15N 35°36' E 140°07'0 0.0
2018-Jul-11 02:00N 35°36' E 140°07'0 0.0
2018-Jul-11 01:18N 35°36' E 140°07'0 0.0
2018-Jul-11 01:00N 35°36' E 140°07'0 0.0
2018-Jul-10 22:30N 35°36' E 140°07'0 0.0
2018-Jul-10 22:00N 35°36' E 140°07'0 0.0
2018-Jul-10 21:30N 35°36' E 140°07'0 0.0
2018-Jul-10 21:00N 35°36' E 140°07'0 0.0
2018-Jul-10 20:30N 35°36' E 140°07'1 1.8
2018-Jul-10 20:00N 35°35' E 140°06'713.7
2018-Jul-10 19:30N 35°32' E 139°58'918.9
2018-Jul-10 19:00N 35°26' E 139°49'713.4
2018-Jul-10 18:30N 35°21' E 139°45'612.1
2018-Jul-10 18:00N 35°15' E 139°47'816.3
2018-Jul-10 17:30N 35°07' E 139°46'1019.3
2018-Jul-10 17:00N 34°58' E 139°40'1121.0
2018-Jul-10 16:30N 34°54' E 139°28'  
Track history (hours):
 
Tides and Currents Weather Stations Pressure Air Temp Water Temp Dewpoint Dewpoint Depression Visibility Wind Speed Wind Dir Waves Ship Positions

Harumaru No,1

Last reported at 2018-Jul-20 04:31 UTC. Time now 2018-Jul-20 06:28 UTC.
Position N 34°34' E 134°16'.

Length 145 m; draft 6.5 m.

Type: Other ship. MMSI: 431501868.

Date/timePositionNaut miles runAvg speedWind from/ knotsBaromVisibWave heightAir tempDewpointWater temp
2018-Jul-20 04:31N 34°34' E 134°16'322.0
2018-Jul-20 04:24N 34°35' E 134°19'921.9
2018-Jul-20 04:00N 34°34' E 134°29'1121.6
2018-Jul-20 03:30N 34°33' E 134°42'1121.6
2018-Jul-20 03:00N 34°36' E 134°55'1019.7
2018-Jul-20 02:30N 34°36' E 135°07'1019.9
2018-Jul-20 02:00N 34°34' E 135°18'5 9.9
2018-Jul-20 01:28N 34°31' E 135°24'0 0.0
2018-Jul-20 00:52N 34°31' E 135°24'0 0.0
2018-Jul-20 00:28N 34°31' E 135°24'0 0.0
2018-Jul-19 23:58N 34°31' E 135°24'0 0.0
2018-Jul-19 23:30N 34°31' E 135°24'0 0.0
2018-Jul-19 23:00N 34°31' E 135°24'2 4.6
2018-Jul-19 22:31N 34°32' E 135°21'917.4
2018-Jul-19 22:01N 34°27' E 135°12'918.5
2018-Jul-19 21:31N 34°22' E 135°04'917.3
2018-Jul-19 21:01N 34°14' E 134°59'1019.6
2018-Jul-19 20:31N 34°04' E 135°00'1019.1
2018-Jul-19 20:01N 33°54' E 135°01'21316.7
2018-Jul-19 07:16N 34°51' E 139°10'618.7
2018-Jul-19 06:57N 34°55' E 139°14'818.4
2018-Jul-19 06:30N 34°59' E 139°22'918.2
2018-Jul-19 06:00N 35°03' E 139°32'919.0
2018-Jul-19 05:30N 35°07' E 139°43'816.0
2018-Jul-19 05:00N 35°15' E 139°46'713.2
2018-Jul-19 04:31N 35°21' E 139°42'1019.3
2018-Jul-19 04:01N 35°29' E 139°49'1019.8
2018-Jul-19 03:30N 35°33' E 139°60'610.9
2018-Jul-19 02:59N 35°35' E 140°06'0 0.1
2018-Jul-19 01:12N 35°36' E 140°07'0 0.0
2018-Jul-19 01:00N 35°36' E 140°07'0 0.0
2018-Jul-19 00:21N 35°36' E 140°07'0 0.0
2018-Jul-18 23:57N 35°36' E 140°07'0 0.0
2018-Jul-18 23:27N 35°36' E 140°07'0 0.0
2018-Jul-18 20:16N 35°36' E 140°07'1 3.4
2018-Jul-18 19:58N 35°35' E 140°05'613.8
2018-Jul-18 19:30N 35°33' E 139°58'919.0
2018-Jul-18 19:00N 35°27' E 139°49'714.2
2018-Jul-18 18:30N 35°21' E 139°45'612.1
2018-Jul-18 18:00N 35°15' E 139°47'815.9
2018-Jul-18 17:30N 35°07' E 139°45'1018.7
2018-Jul-18 16:59N 34°60' E 139°37'1220.7
2018-Jul-18 16:25N 34°52' E 139°26'22317.2
2018-Jul-18 03:30N 33°45' E 135°09'919.1
2018-Jul-18 03:00N 33°52' E 135°02'918.4
2018-Jul-18 02:30N 34°01' E 134°59'919.0
2018-Jul-18 02:00N 34°10' E 134°58'918.7
2018-Jul-18 01:30N 34°19' E 135°00'1019.2
2018-Jul-18 01:00N 34°25' E 135°09'918.7
2018-Jul-18 00:30N 34°30' E 135°19'5 8.7
2018-Jul-17 23:59N 34°31' E 135°24'0 0.0
2018-Jul-17 23:29N 34°31' E 135°24'0 0.0
2018-Jul-17 22:59N 34°31' E 135°24'0 0.0
2018-Jul-17 22:29N 34°31' E 135°24'0 0.0
2018-Jul-17 21:59N 34°31' E 135°24'0 0.0
2018-Jul-17 21:29N 34°31' E 135°24'0 0.0
2018-Jul-17 21:00N 34°31' E 135°24'2 3.2
2018-Jul-17 20:30N 34°33' E 135°23'816.0
2018-Jul-17 20:00N 34°35' E 135°14'919.0
2018-Jul-17 19:31N 34°36' E 135°02'1020.4
2018-Jul-17 19:00N 34°33' E 134°50'1021.0
2018-Jul-17 18:31N 34°29' E 134°39'1121.5
2018-Jul-17 18:00N 34°25' E 134°27'1121.0
2018-Jul-17 17:30N 34°24' E 134°14'18 1.9
2018-Jul-17 08:14N 34°25' E 133°53'24 5.4
2018-Jul-17 03:48N 34°35' E 134°19'619.5
2018-Jul-17 03:30N 34°34' E 134°25'1019.5
2018-Jul-17 03:00N 34°33' E 134°37'1019.6
2018-Jul-17 02:30N 34°34' E 134°49'1020.4
2018-Jul-17 02:00N 34°37' E 135°01'919.0
2018-Jul-17 01:30N 34°35' E 135°12'917.5
2018-Jul-17 01:00N 34°33' E 135°22'2 4.0
2018-Jul-17 00:29N 34°31' E 135°24'0 0.0
2018-Jul-16 23:29N 34°31' E 135°24'0 0.0
2018-Jul-16 22:59N 34°31' E 135°24'0 0.0
2018-Jul-16 22:23N 34°31' E 135°24'0 0.0
2018-Jul-16 21:59N 34°31' E 135°24'0 0.0
2018-Jul-16 21:29N 34°31' E 135°24'0 0.0
2018-Jul-16 20:59N 34°31' E 135°24'0 0.1
2018-Jul-16 20:23N 34°31' E 135°24'0 0.0
2018-Jul-16 19:59N 34°31' E 135°24'0 0.1
2018-Jul-16 19:29N 34°31' E 135°24'0 0.0
2018-Jul-16 18:59N 34°31' E 135°24'0 0.0
2018-Jul-16 18:29N 34°31' E 135°24'0 0.0
2018-Jul-16 17:53N 34°31' E 135°24'0 0.0
2018-Jul-16 17:17N 34°31' E 135°24'0 0.0
2018-Jul-16 16:59N 34°31' E 135°24'0 0.0
2018-Jul-16 16:17N 34°31' E 135°24'0 0.0
2018-Jul-16 15:59N 34°31' E 135°24'0 0.0
2018-Jul-16 15:23N 34°31' E 135°24'0 0.0
2018-Jul-16 14:53N 34°31' E 135°24'0 0.0
2018-Jul-16 14:29N 34°31' E 135°24'0 0.0
2018-Jul-16 13:53N 34°31' E 135°24'0 0.0
2018-Jul-16 13:23N 34°31' E 135°24'0 0.1
2018-Jul-16 12:59N 34°31' E 135°24'0 0.1
2018-Jul-16 12:29N 34°31' E 135°24'0 0.0
2018-Jul-16 11:59N 34°31' E 135°24'0 0.0
2018-Jul-16 11:29N 34°31' E 135°24'0 0.0
2018-Jul-16 10:59N 34°31' E 135°24'0 0.0
2018-Jul-16 10:29N 34°31' E 135°24'0 0.0
2018-Jul-16 09:59N 34°31' E 135°24'0 0.0
2018-Jul-16 09:23N 34°31' E 135°24'0 0.0
2018-Jul-16 08:47N 34°31' E 135°24'0 0.2
2018-Jul-16 08:29N 34°31' E 135°24'0 0.1
2018-Jul-16 07:59N 34°31' E 135°24'0 0.0
2018-Jul-16 07:29N 34°31' E 135°24'0 0.1
2018-Jul-16 06:59N 34°31' E 135°24'0 0.0
2018-Jul-16 06:23N 34°31' E 135°24'0 0.1
2018-Jul-16 05:59N 34°31' E 135°24'0 0.0
2018-Jul-16 05:23N 34°31' E 135°24'0 0.0
2018-Jul-16 04:59N 34°31' E 135°24'0 0.0
2018-Jul-16 04:29N 34°31' E 135°24'0 0.0
2018-Jul-16 03:59N 34°31' E 135°24'0 0.1
2018-Jul-16 03:29N 34°31' E 135°24'0 0.1
2018-Jul-16 02:53N 34°31' E 135°24'0 0.0
2018-Jul-16 02:29N 34°31' E 135°24'0 0.0
2018-Jul-16 01:59N 34°31' E 135°24'0 0.1
2018-Jul-16 01:23N 34°31' E 135°24'0 0.1
2018-Jul-16 00:59N 34°31' E 135°24'0 0.1
2018-Jul-16 00:29N 34°31' E 135°24'0 0.1
2018-Jul-15 23:59N 34°31' E 135°24'0 0.0
2018-Jul-15 23:29N 34°31' E 135°24'0 0.0
2018-Jul-15 22:59N 34°31' E 135°24'0 0.0
2018-Jul-15 22:23N 34°31' E 135°24'0 0.0
2018-Jul-15 21:59N 34°31' E 135°24'0 0.0
2018-Jul-15 21:29N 34°31' E 135°24'0 0.0
2018-Jul-15 20:59N 34°31' E 135°24'0 0.0
2018-Jul-15 20:29N 34°31' E 135°24'0 0.0
2018-Jul-15 19:59N 34°31' E 135°24'0 0.0
2018-Jul-15 19:29N 34°31' E 135°24'0 0.0
2018-Jul-15 18:59N 34°31' E 135°24'0 0.0
2018-Jul-15 18:29N 34°31' E 135°24'0 0.0
2018-Jul-15 17:56N 34°31' E 135°24'0 0.0
2018-Jul-15 17:29N 34°31' E 135°24'0 0.1
2018-Jul-15 16:47N 34°31' E 135°24'0 0.1
2018-Jul-15 16:05N 34°31' E 135°24'0 0.0
2018-Jul-15 15:59N 34°31' E 135°24'0 0.0
2018-Jul-15 15:29N 34°31' E 135°24'0 0.0
2018-Jul-15 14:59N 34°31' E 135°24'0 0.1
2018-Jul-15 14:29N 34°31' E 135°24'0 0.1
2018-Jul-15 13:56N 34°31' E 135°24'0 0.0
2018-Jul-15 13:29N 34°31' E 135°24'0 0.1
2018-Jul-15 12:59N 34°31' E 135°24'0 0.1
2018-Jul-15 12:23N 34°31' E 135°24'0 0.0
2018-Jul-15 11:47N 34°31' E 135°24'0 0.0
2018-Jul-15 11:29N 34°31' E 135°24'0 0.0
2018-Jul-15 10:59N 34°31' E 135°24'0 0.0
2018-Jul-15 10:29N 34°31' E 135°24'0 0.0
2018-Jul-15 09:50N 34°31' E 135°24'0 0.0
2018-Jul-15 09:29N 34°31' E 135°24'0 0.0
2018-Jul-15 08:59N 34°31' E 135°24'0 0.1
2018-Jul-15 08:29N 34°31' E 135°24'0 0.0
2018-Jul-15 07:59N 34°31' E 135°24'0 0.1
2018-Jul-15 07:23N 34°31' E 135°24'0 0.1
2018-Jul-15 06:59N 34°31' E 135°24'0 0.1
2018-Jul-15 06:29N 34°31' E 135°24'0 0.0
2018-Jul-15 05:59N 34°31' E 135°24'0 0.1
2018-Jul-15 05:29N 34°31' E 135°24'0 0.1
2018-Jul-15 04:59N 34°31' E 135°24'0 0.0
2018-Jul-15 04:29N 34°31' E 135°24'0 0.0
2018-Jul-15 03:59N 34°31' E 135°24'0 0.0
2018-Jul-15 03:29N 34°31' E 135°24'0 0.0
2018-Jul-15 02:59N 34°31' E 135°24'0 0.1
2018-Jul-15 02:29N 34°31' E 135°24'0 0.1
2018-Jul-15 01:59N 34°31' E 135°24'0 0.0
2018-Jul-15 01:29N 34°31' E 135°24'0 0.0
2018-Jul-15 00:59N 34°31' E 135°24'0 0.0
2018-Jul-15 00:29N 34°31' E 135°24'0 0.1
2018-Jul-14 23:59N 34°31' E 135°24'0 0.1
2018-Jul-14 23:29N 34°31' E 135°24'0 0.1
2018-Jul-14 23:00N 34°31' E 135°24'3 5.1
2018-Jul-14 22:30N 34°32' E 135°21'917.9
2018-Jul-14 22:00N 34°27' E 135°12'1019.6
2018-Jul-14 21:30N 34°21' E 135°03'917.1
2018-Jul-14 21:00N 34°13' E 134°60'1019.1
2018-Jul-14 20:30N 34°03' E 135°01'918.8
2018-Jul-14 20:00N 33°54' E 135°01'1019.5
2018-Jul-14 19:29N 33°46' E 135°09'16317.5
2018-Jul-14 10:09N 34°25' E 138°21'1818.9
2018-Jul-14 09:11N 34°29' E 138°42'1517.9
2018-Jul-14 08:19N 34°36' E 138°59'820.1
2018-Jul-14 07:56N 34°42' E 139°04'819.2
2018-Jul-14 07:30N 34°49' E 139°09'1018.8
2018-Jul-14 07:00N 34°57' E 139°16'817.2
2018-Jul-14 06:30N 35°01' E 139°25'918.0
2018-Jul-14 06:00N 35°04' E 139°35'1019.2
2018-Jul-14 05:30N 35°10' E 139°45'713.9
2018-Jul-14 05:00N 35°17' E 139°45'714.2
2018-Jul-14 04:30N 35°23' E 139°42'1020.1
2018-Jul-14 04:00N 35°30' E 139°52'918.4
2018-Jul-14 03:30N 35°34' E 140°02'4 6.0
2018-Jul-14 02:49N 35°36' E 140°07'0 0.0
2018-Jul-14 02:16N 35°36' E 140°07'0 0.0
2018-Jul-14 01:58N 35°36' E 140°07'0 0.0
2018-Jul-14 01:19N 35°36' E 140°07'0 0.0
2018-Jul-14 00:58N 35°36' E 140°07'0 0.0
2018-Jul-14 00:28N 35°36' E 140°07'0 0.0
2018-Jul-13 23:43N 35°36' E 140°07'0 0.0
2018-Jul-13 23:28N 35°36' E 140°07'0 0.0
2018-Jul-13 22:37N 35°36' E 140°07'0 0.0
2018-Jul-13 22:28N 35°36' E 140°07'0 0.0
2018-Jul-13 21:52N 35°36' E 140°07'0 0.0
2018-Jul-13 21:28N 35°36' E 140°07'0 0.0
2018-Jul-13 20:58N 35°36' E 140°07'0 0.0
2018-Jul-13 20:28N 35°36' E 140°07'1 2.4
2018-Jul-13 20:00N 35°35' E 140°05'714.2
2018-Jul-13 19:30N 35°32' E 139°57'1019.1
2018-Jul-13 19:00N 35°26' E 139°49'713.6
2018-Jul-13 18:30N 35°20' E 139°44'612.1
2018-Jul-13 18:00N 35°14' E 139°47'816.0
2018-Jul-13 17:31N 35°07' E 139°44'1019.2
2018-Jul-13 17:01N 34°59' E 139°38'918.6
2018-Jul-13 16:31N 34°54' E 139°28'1121.4
2018-Jul-13 15:58N 34°47' E 139°17'2920.1
2018-Jul-13 14:31N 34°30' E 138°48'020.9
2018-Jul-13 14:30N 34°30' E 138°48'1918.8
2018-Jul-13 13:30N 34°27' E 138°25'16716.7
2018-Jul-13 03:27N 33°43' E 135°10'920.5
2018-Jul-13 03:00N 33°49' E 135°03'1019.8
2018-Jul-13 02:30N 33°59' E 134°59'1020.1
2018-Jul-13 02:00N 34°09' E 134°59'1020.4
2018-Jul-13 01:30N 34°19' E 134°60'1019.3
2018-Jul-13 01:01N 34°26' E 135°08'1019.2
2018-Jul-13 00:30N 34°30' E 135°18'5 9.8
2018-Jul-13 00:00N 34°31' E 135°24'0 0.0
2018-Jul-12 23:30N 34°31' E 135°24'0 0.0
2018-Jul-12 23:00N 34°31' E 135°24'0 0.0
2018-Jul-12 22:30N 34°31' E 135°24'0 0.0
2018-Jul-12 22:00N 34°31' E 135°24'0 0.0
2018-Jul-12 21:30N 34°31' E 135°24'0 0.0
2018-Jul-12 21:00N 34°31' E 135°24'2 3.1
2018-Jul-12 20:30N 34°33' E 135°23'714.6
2018-Jul-12 20:00N 34°35' E 135°15'917.8
2018-Jul-12 19:30N 34°35' E 135°04'918.6
2018-Jul-12 19:00N 34°34' E 134°53'1019.6
2018-Jul-12 18:30N 34°30' E 134°42'1019.6
2018-Jul-12 18:00N 34°26' E 134°31'918.8
2018-Jul-12 17:30N 34°23' E 134°20'816.5
2018-Jul-12 17:00N 34°25' E 134°10'12 1.0
2018-Jul-12 04:52N 34°35' E 134°18'720.3
2018-Jul-12 04:30N 34°34' E 134°27'1020.7
2018-Jul-12 04:00N 34°33' E 134°39'1019.8
2018-Jul-12 03:30N 34°35' E 134°51'917.4
2018-Jul-12 03:00N 34°37' E 135°02'918.9
2018-Jul-12 02:30N 34°35' E 135°12'917.4
2018-Jul-12 02:00N 34°33' E 135°23'1 2.9
2018-Jul-12 01:30N 34°31' E 135°24'0 0.0
2018-Jul-12 01:00N 34°31' E 135°24'0 0.0
2018-Jul-12 00:24N 34°31' E 135°24'0 0.0
2018-Jul-12 00:01N 34°31' E 135°24'0 0.1
2018-Jul-11 23:30N 34°31' E 135°24'0 0.8
2018-Jul-11 23:00N 34°32' E 135°24'611.3
2018-Jul-11 22:30N 34°30' E 135°18'1019.0
2018-Jul-11 22:00N 34°25' E 135°08'1019.6
2018-Jul-11 21:30N 34°18' E 134°60'1020.0
2018-Jul-11 21:00N 34°08' E 134°60'1019.6
2018-Jul-11 20:30N 33°58' E 135°01'1018.3
2018-Jul-11 19:59N 33°49' E 135°05'20717.4
2018-Jul-11 08:09N 34°44' E 139°06'318.1
2018-Jul-11 07:58N 34°47' E 139°08'818.0
2018-Jul-11 07:30N 34°54' E 139°14'816.5
2018-Jul-11 07:00N 34°59' E 139°22'816.5
2018-Jul-11 06:30N 35°02' E 139°31'919.1
2018-Jul-11 06:00N 35°06' E 139°42'816.7
2018-Jul-11 05:30N 35°14' E 139°46'612.7
2018-Jul-11 05:00N 35°19' E 139°43'815.7
2018-Jul-11 04:30N 35°27' E 139°46'1019.4
2018-Jul-11 04:00N 35°32' E 139°57'711.2
2018-Jul-11 03:23N 35°35' E 140°04'2 3.3
2018-Jul-11 02:42N 35°36' E 140°07'0 0.0
2018-Jul-11 02:15N 35°36' E 140°07'0 0.0
2018-Jul-11 02:00N 35°36' E 140°07'0 0.0
2018-Jul-11 01:18N 35°36' E 140°07'0 0.0
2018-Jul-11 01:00N 35°36' E 140°07'0 0.0
2018-Jul-10 22:30N 35°36' E 140°07'0 0.0
2018-Jul-10 22:00N 35°36' E 140°07'0 0.0
2018-Jul-10 21:30N 35°36' E 140°07'0 0.0
2018-Jul-10 21:00N 35°36' E 140°07'0 0.0
2018-Jul-10 20:30N 35°36' E 140°07'1 1.8
2018-Jul-10 20:00N 35°35' E 140°06'713.7
2018-Jul-10 19:30N 35°32' E 139°58'918.9
2018-Jul-10 19:00N 35°26' E 139°49'713.4
2018-Jul-10 18:30N 35°21' E 139°45'612.1
2018-Jul-10 18:00N 35°15' E 139°47'816.3
2018-Jul-10 17:30N 35°07' E 139°46'1019.3
2018-Jul-10 17:00N 34°58' E 139°40'1121.0
2018-Jul-10 16:30N 34°54' E 139°28'  

Dump ship's entire track history